LIRQLIMF

Guest
Details From LIRQ - Firenze
To LIMF - Torino Caselle
Flight Number -
Tags decoded
Created
Modified
Stats Distance 216 nm / 399 km
Max Altitude 0 ft / 0 m
Waypoints 8
Social Downloads 2
Likes 0
Share VATSIM

Download

Looking for another format? Having issues loading an existing format? Contact us
Advertisement - Login to hide

Notes

Requested: LIRQ FRZ BOA PIA VOG TOP CSL LIMF

Route

LIRQ FRZ BOA PIA VOG TOP CSL LIMF

ID Type Via Altitude Latitude Longitude Leg Dist Tot Dist Heading (true) Name
O LIRQ APT - 0 ft / 0 m 43.80998˚ 11.20512˚ - 0 nm - Firenze
FRZ VOR - 0 ft / 0 m 44.02718˚ 11.00331˚ 15 nm 15 nm 326° / 326° FIRENZE VORTAC
BOA NDB - 0 ft / 0 m 44.56722˚ 11.20028˚ 33 nm 49 nm 15° / 15° BOLOGNA NDB
PIA NDB - 0 ft / 0 m 44.87167˚ 9.82667˚ 61 nm 110 nm 288° / 287° PIACENZA NDB
VOG NDB - 0 ft / 0 m 44.96389˚ 8.97222˚ 36 nm 147 nm 279° / 278° VOGHERA NDB
TOP NDB - 0 ft / 0 m 44.92472˚ 7.86056˚ 47 nm 194 nm 268° / 267° TORINO NDB
CSL VOR - 0 ft / 0 m 45.21970˚ 7.64957˚ 19 nm 214 nm 333° / 333° CASELLE VOR-DME
O LIMF APT - 0 ft / 0 m 45.20076˚ 7.64963˚ 1 nm 215 nm 180° / 180° Torino Caselle

Altitude Profile

Advertisement - Login to hide

Weather


0- 5 10 15 20 25 30 35+ Temperature / ° C

Clouds and Precipitation
Forecast for 2017-12-15 00:00 UTC. Updated an hour ago

Ground ~20,000 ft ~40,000 ft Winds

LIRQ

Details ICAO LIRQ (FLR)
Name Firenze
Region Italy
Timezone Europe/Rome (UTC+1.0)
Stats Elevation 142 ft / 43 m (AMSL)
Location 43.809984° 11.205118°
Runways 1
Magnetic Variation 2.875° E

METAR

LIRQ 150020Z 22008KT 180V280 CAVOK 13/08 Q1006

Decode

TAF

TAF LIRQ 142300Z 1500/1524 22012KT 9999 SCT025 BKN050 TEMPO 1500/1509 4000 RA TEMPO 1509/1518 SHRA

Decode

Departure Runways

ID Width Length Bearing (true) Bearing (mag) Surface Threshold Offset Overrun Length
05 98 ft / 30 m 5,420 ft / 1,652 m 48.52° 45.65° Asphalt 492 ft / 150 m 0 ft / 0 m
23 98 ft / 30 m 5,420 ft / 1,652 m 228.53° 225.66° Asphalt 2,287 ft / 697 m 0 ft / 0 m

LIMF

Details ICAO LIMF (TRN)
Name Torino Caselle
Region Italy
Timezone Europe/Rome (UTC+1.0)
Stats Elevation 989 ft / 301 m (AMSL)
Location 45.200763° 7.649630°
Runways 1
Magnetic Variation 2.122° E

METAR

LIMF 150020Z 33005KT CAVOK M00/M04 Q1000

Decode

TAF

TAF LIMF 142300Z 1500/1524 VRB05KT 9999 SCT090

Decode

Destination Runways

ID Width Length Bearing (true) Bearing (mag) Surface Threshold Offset Overrun Length
18 197 ft / 60 m 10,835 ft / 3,303 m 182.56° 180.44° Asphalt 2,378 ft / 725 m 970 ft / 296 m
36 197 ft / 60 m 10,835 ft / 3,303 m 2.56° 0.44° Asphalt 1,148 ft / 350 m 0 ft / 0 m

Approach Navaids

Runway Type Ident Frequency Range Bearing (true) Bearing (mag) Slope Elevation
36 Localiser ITOC 108.70 MHz 18 nm / 33 km 2.56° 0.44° - 989 ft / 301 m (AMSL)
36 Glidescope ITOC 108.70 MHz 10 nm / 19 km 2.56° 0.44° 3.00° 989 ft / 301 m (AMSL)
36 DME ITOC 108.70 MHz 25 nm / 46 km - - - 989 ft / 301 m (AMSL)

Popular Alternatives